createdAt,value
2023-02-19T00:00:24.443Z,95608.13
2023-02-19T00:02:50.714Z,95606.19
2023-02-19T00:05:16.987Z,95599.81
2023-02-19T00:07:43.283Z,95606.06
2023-02-19T00:10:09.541Z,95602.66
2023-02-19T00:12:35.792Z,95610.38
2023-02-19T00:15:02.031Z,95608.41
2023-02-19T00:17:28.294Z,95608.78
2023-02-19T00:19:54.538Z,95612.38
2023-02-19T00:22:20.823Z,95611.41
2023-02-19T00:24:49.201Z,95609.31
2023-02-19T00:27:15.550Z,95609.31
2023-02-19T00:29:41.809Z,95609.31
2023-02-19T00:32:08.246Z,95607.06
2023-02-19T00:34:34.548Z,95607.53
2023-02-19T00:37:00.813Z,95603.84
2023-02-19T00:39:27.086Z,95599.81
2023-02-19T00:41:53.349Z,95601.44
2023-02-19T00:44:19.599Z,95594.16
2023-02-19T00:46:45.881Z,95596.34
2023-02-19T00:49:12.129Z,95600.69
2023-02-19T00:51:38.364Z,95585.38
2023-02-19T00:54:04.640Z,95594.84
2023-02-19T00:56:30.922Z,95602.94
2023-02-19T00:58:57.207Z,95600.94
2023-02-19T01:01:23.485Z,95606.47
2023-02-19T01:03:49.763Z,95607.94
2023-02-19T01:06:16.004Z,95602.25
2023-02-19T01:08:42.275Z,95597.13
2023-02-19T01:11:08.729Z,95601.09
2023-02-19T01:13:35.135Z,95594.50
2023-02-19T01:16:01.399Z,95585.66
2023-02-19T01:18:27.652Z,95585.19
2023-02-19T01:20:53.915Z,95582.28
2023-02-19T01:23:20.177Z,95586.19
2023-02-19T01:25:46.430Z,95585.75
2023-02-19T01:28:12.676Z,95581.97
2023-02-19T01:30:38.927Z,95585.75
2023-02-19T01:33:05.174Z,95575.31
2023-02-19T01:35:31.438Z,95580.50
2023-02-19T01:37:57.687Z,95583.25
2023-02-19T01:40:23.926Z,95575.34
2023-02-19T01:42:50.195Z,95579.78
2023-02-19T01:45:16.455Z,95580.75
2023-02-19T01:47:42.728Z,95583.41
2023-02-19T01:50:08.985Z,95577.97
2023-02-19T01:52:35.237Z,95585.31
2023-02-19T01:55:01.498Z,95579.97
2023-02-19T01:57:27.747Z,95577.25
2023-02-19T01:59:53.991Z,95582.09
2023-02-19T02:02:20.268Z,95570.16
2023-02-19T02:04:46.530Z,95565.31
2023-02-19T02:07:12.783Z,95567.13
2023-02-19T02:09:39.049Z,95558.94
2023-02-19T02:12:05.305Z,95552.75
2023-02-19T02:14:31.569Z,95549.00
2023-02-19T02:16:57.825Z,95551.56
2023-02-19T02:19:24.100Z,95554.16
2023-02-19T02:21:50.357Z,95553.72
2023-02-19T02:24:16.627Z,95552.91
2023-02-19T02:26:42.893Z,95551.34
2023-02-19T02:29:09.139Z,95553.41
2023-02-19T02:31:35.539Z,95544.72
2023-02-19T02:34:01.822Z,95558.66
2023-02-19T02:36:28.066Z,95553.13
2023-02-19T02:38:54.338Z,95562.34
2023-02-19T02:41:20.614Z,95553.91
2023-02-19T02:43:46.882Z,95552.75
2023-02-19T02:46:13.140Z,95544.53
2023-02-19T02:48:39.401Z,95541.22
2023-02-19T02:51:05.638Z,95537.38
2023-02-19T02:53:31.903Z,95541.13
2023-02-19T02:55:58.163Z,95532.28
2023-02-19T02:58:24.417Z,95524.56
2023-02-19T03:00:50.677Z,95523.28
2023-02-19T03:03:16.941Z,95520.91
2023-02-19T03:05:43.207Z,95528.59
2023-02-19T03:08:09.483Z,95529.59
2023-02-19T03:10:35.755Z,95527.09
2023-02-19T03:13:02.018Z,95532.72
2023-02-19T03:15:28.268Z,95525.41
2023-02-19T03:17:54.505Z,95520.66
2023-02-19T03:20:20.739Z,95515.00
2023-02-19T03:22:46.982Z,95518.75
2023-02-19T03:25:13.232Z,95521.59
2023-02-19T03:27:39.472Z,95528.88
2023-02-19T03:30:05.747Z,95522.00
2023-02-19T03:32:32.023Z,95519.69
2023-02-19T03:34:58.285Z,95515.41
2023-02-19T03:37:24.529Z,95505.75
2023-02-19T03:39:50.793Z,95519.63
2023-02-19T03:42:17.029Z,95522.09
2023-02-19T03:44:43.343Z,95528.03
2023-02-19T03:47:09.594Z,95533.69
2023-02-19T03:49:35.833Z,95546.00
2023-02-19T03:52:02.083Z,95554.84
2023-02-19T03:54:28.346Z,95560.81
2023-02-19T03:56:54.593Z,95567.84
2023-02-19T03:59:20.842Z,95571.00
2023-02-19T04:01:47.134Z,95578.03
2023-02-19T04:04:13.407Z,95571.16
2023-02-19T04:06:39.669Z,95563.44
2023-02-19T04:09:05.914Z,95563.84
2023-02-19T04:11:32.182Z,95580.13
2023-02-19T04:13:58.444Z,95585.66
2023-02-19T04:16:24.706Z,95583.44
2023-02-19T04:18:50.974Z,95575.47
2023-02-19T04:21:17.228Z,95588.97
2023-02-19T04:23:43.463Z,95590.16
2023-02-19T04:26:09.718Z,95582.56
2023-02-19T04:28:36.013Z,95571.19
2023-02-19T04:31:02.373Z,95568.41
2023-02-19T04:33:28.659Z,95586.19
2023-02-19T04:35:54.905Z,95586.97
2023-02-19T04:38:21.152Z,95598.47
2023-02-19T04:40:47.417Z,95599.44
2023-02-19T04:43:13.682Z,95594.91
2023-02-19T04:45:39.949Z,95574.91
2023-02-19T04:48:06.202Z,95556.84
2023-02-19T04:50:32.458Z,95541.22
2023-02-19T04:52:58.724Z,95547.28
2023-02-19T04:55:24.990Z,95556.13
2023-02-19T04:57:51.237Z,95543.84
2023-02-19T05:00:17.485Z,95539.69
2023-02-19T05:02:43.749Z,95524.91
2023-02-19T05:05:09.988Z,95513.38
2023-02-19T05:07:36.230Z,95502.41
2023-02-19T05:10:02.505Z,95498.13
2023-02-19T05:12:28.750Z,95499.88
2023-02-19T05:14:54.999Z,95492.28
2023-02-19T05:17:21.246Z,95490.59
2023-02-19T05:19:47.519Z,95483.53
2023-02-19T05:22:13.786Z,95480.91
2023-02-19T05:24:40.057Z,95485.88
2023-02-19T05:27:06.300Z,95486.47
2023-02-19T05:29:32.562Z,95507.28
2023-02-19T05:31:58.825Z,95513.00
2023-02-19T05:34:25.094Z,95521.09
2023-02-19T05:36:51.336Z,95505.81
2023-02-19T05:39:17.590Z,95505.03
2023-02-19T05:41:43.855Z,95514.38
2023-02-19T05:44:10.124Z,95520.78
2023-02-19T05:46:36.395Z,95525.78
2023-02-19T05:49:02.705Z,95530.09
2023-02-19T05:51:28.960Z,95523.88
2023-02-19T05:53:55.236Z,95530.75
2023-02-19T05:56:21.522Z,95535.25
2023-02-19T05:58:47.838Z,95540.06
2023-02-19T06:01:14.177Z,95538.09
2023-02-19T06:03:40.597Z,95545.94
2023-02-19T06:06:06.897Z,95550.78
2023-02-19T06:08:33.158Z,95564.97
2023-02-19T06:10:59.416Z,95556.63
2023-02-19T06:13:25.662Z,95562.91
2023-02-19T06:15:51.947Z,95565.94
2023-02-19T06:18:18.221Z,95568.03
2023-02-19T06:20:44.458Z,95557.19
2023-02-19T06:23:10.728Z,95554.03
2023-02-19T06:25:36.966Z,95559.28
2023-02-19T06:28:03.218Z,95563.53
2023-02-19T06:30:29.546Z,95555.78
2023-02-19T06:32:55.812Z,95563.22
2023-02-19T06:35:22.068Z,95569.69
2023-02-19T06:37:48.342Z,95564.19
2023-02-19T06:40:14.610Z,95563.06
2023-02-19T06:42:40.873Z,95570.25
2023-02-19T06:45:07.157Z,95561.97
2023-02-19T06:47:33.426Z,95562.63
2023-02-19T06:49:59.697Z,95565.66
2023-02-19T06:52:25.947Z,95575.19
2023-02-19T06:54:52.198Z,95589.00
2023-02-19T06:57:18.472Z,95599.47
2023-02-19T06:59:44.727Z,95597.28
2023-02-19T07:02:10.979Z,95598.81
2023-02-19T07:04:37.238Z,95603.47
2023-02-19T07:07:03.501Z,95603.72
2023-02-19T07:09:29.805Z,95610.75
2023-02-19T07:11:56.077Z,95609.78
2023-02-19T07:14:22.340Z,95619.03
2023-02-19T07:16:48.605Z,95618.84
2023-02-19T07:19:14.898Z,95631.31
2023-02-19T07:21:41.161Z,95632.22
2023-02-19T07:24:07.438Z,95637.19
2023-02-19T07:26:33.711Z,95630.13
2023-02-19T07:28:59.958Z,95647.88
2023-02-19T07:31:26.327Z,95659.66
2023-02-19T07:33:52.676Z,95671.81
2023-02-19T07:36:18.926Z,95671.97
2023-02-19T07:38:45.197Z,95670.59
2023-02-19T07:41:11.744Z,95671.69
2023-02-19T07:43:38.193Z,95672.81
2023-02-19T07:46:04.457Z,95676.25
2023-02-19T07:48:30.770Z,95678.31
2023-02-19T07:50:57.144Z,95677.22
2023-02-19T07:53:23.413Z,95683.72
2023-02-19T07:55:49.691Z,95680.13
2023-02-19T07:58:15.953Z,95687.56
2023-02-19T08:00:42.208Z,95687.56
2023-02-19T08:03:08.577Z,95695.41
2023-02-19T08:05:34.836Z,95694.53
2023-02-19T08:08:01.108Z,95702.41
2023-02-19T08:10:27.429Z,95695.47
2023-02-19T08:12:53.667Z,95696.69
2023-02-19T08:15:22.194Z,95699.00
2023-02-19T08:17:48.702Z,95700.41
2023-02-19T08:20:14.940Z,95695.63
2023-02-19T08:22:41.211Z,95709.69
2023-02-19T08:25:07.477Z,95711.09
2023-02-19T08:27:33.735Z,95699.72
2023-02-19T08:30:00.036Z,95703.25
2023-02-19T08:32:26.341Z,95703.09
2023-02-19T08:34:52.582Z,95707.47
2023-02-19T08:37:18.822Z,95703.09
2023-02-19T08:39:45.097Z,95710.09
2023-02-19T08:42:11.338Z,95712.06
2023-02-19T08:44:37.590Z,95718.47
2023-02-19T08:47:03.918Z,95713.59
2023-02-19T08:49:30.402Z,95709.00
2023-02-19T08:51:56.649Z,95709.59
2023-02-19T08:54:22.894Z,95710.06
2023-02-19T08:56:49.138Z,95706.69
2023-02-19T08:59:15.379Z,95720.56
2023-02-19T09:01:41.745Z,95713.50
2023-02-19T09:04:08.074Z,95713.19
2023-02-19T09:06:34.332Z,95723.66
2023-02-19T09:09:00.601Z,95730.72
2023-02-19T09:11:26.846Z,95721.31
2023-02-19T09:13:53.111Z,95720.25
2023-02-19T09:16:19.358Z,95724.22
2023-02-19T09:18:45.605Z,95711.53
2023-02-19T09:21:12.145Z,95718.66
2023-02-19T09:23:38.705Z,95719.50
2023-02-19T09:26:04.963Z,95721.34
2023-02-19T09:28:31.235Z,95709.03
2023-02-19T09:30:57.551Z,95703.13
2023-02-19T09:33:23.813Z,95710.97
2023-02-19T09:35:50.221Z,95701.91
2023-02-19T09:38:16.476Z,95704.53
2023-02-19T09:40:42.741Z,95706.03
2023-02-19T09:43:08.984Z,95710.31
2023-02-19T09:45:35.230Z,95706.41
2023-02-19T09:48:01.502Z,95715.66
2023-02-19T09:50:27.747Z,95718.34
2023-02-19T09:52:53.985Z,95712.25
2023-02-19T09:55:20.235Z,95718.13
2023-02-19T09:57:46.474Z,95714.34
2023-02-19T10:00:12.725Z,95715.75
2023-02-19T10:02:38.985Z,95712.25
2023-02-19T10:05:05.271Z,95714.22
2023-02-19T10:07:31.522Z,95719.19
2023-02-19T10:09:57.781Z,95707.50
2023-02-19T10:12:24.028Z,95703.56
2023-02-19T10:14:50.265Z,95719.72
2023-02-19T10:17:16.506Z,95703.44
2023-02-19T10:19:42.752Z,95703.94
2023-02-19T10:22:09.014Z,95709.59
2023-02-19T10:24:37.570Z,95705.13
2023-02-19T10:27:04.709Z,95705.59
2023-02-19T10:29:30.961Z,95712.16
2023-02-19T10:31:57.270Z,95705.13
2023-02-19T10:34:23.554Z,95708.72
2023-02-19T10:36:49.826Z,95708.44
2023-02-19T10:39:16.082Z,95703.38
2023-02-19T10:41:44.196Z,95706.03
2023-02-19T10:44:10.667Z,95711.47
2023-02-19T10:46:36.943Z,95708.00
2023-02-19T10:49:03.206Z,95709.50
2023-02-19T10:51:29.466Z,95703.25
2023-02-19T10:53:55.712Z,95713.16
2023-02-19T10:56:21.941Z,95703.06
2023-02-19T10:58:48.197Z,95701.59
2023-02-19T11:01:14.449Z,95708.50
2023-02-19T11:03:40.690Z,95695.16
2023-02-19T11:06:06.941Z,95695.63
2023-02-19T11:08:33.216Z,95693.00
2023-02-19T11:10:59.479Z,95696.63
2023-02-19T11:13:25.734Z,95699.78
2023-02-19T11:15:52.052Z,95696.16
2023-02-19T11:18:18.333Z,95693.34
2023-02-19T11:20:44.679Z,95688.88
2023-02-19T11:23:10.936Z,95688.06
2023-02-19T11:25:37.195Z,95680.66
2023-02-19T11:28:03.481Z,95671.75
2023-02-19T11:30:29.815Z,95677.66
2023-02-19T11:32:56.108Z,95667.56
2023-02-19T11:35:22.364Z,95660.38
2023-02-19T11:37:48.623Z,95659.84
2023-02-19T11:40:14.862Z,95658.69
2023-02-19T11:42:41.138Z,95656.00
2023-02-19T11:45:07.371Z,95656.53
2023-02-19T11:47:33.634Z,95658.97
2023-02-19T11:49:59.866Z,95654.28
2023-02-19T11:52:26.107Z,95641.81
2023-02-19T11:54:52.374Z,95646.72
2023-02-19T11:57:18.638Z,95639.03
2023-02-19T11:59:44.910Z,95637.22
2023-02-19T12:02:11.192Z,95630.75
2023-02-19T12:04:37.898Z,95635.56
2023-02-19T12:07:04.198Z,95626.25
2023-02-19T12:09:30.455Z,95632.41
2023-02-19T12:11:56.718Z,95634.66
2023-02-19T12:14:22.972Z,95630.63
2023-02-19T12:16:49.254Z,95628.63
2023-02-19T12:19:15.555Z,95631.59
2023-02-19T12:21:41.809Z,95617.88
2023-02-19T12:24:08.062Z,95625.81
2023-02-19T12:26:34.319Z,95624.84
2023-02-19T12:29:00.572Z,95613.53
2023-02-19T12:31:26.875Z,95608.06
2023-02-19T12:33:53.174Z,95615.34
2023-02-19T12:36:19.428Z,95607.13
2023-02-19T12:38:45.686Z,95616.72
2023-02-19T12:41:11.941Z,95608.31
2023-02-19T12:43:38.190Z,95615.56
2023-02-19T12:46:04.492Z,95621.53
2023-02-19T12:48:30.790Z,95607.81
2023-02-19T12:50:57.065Z,95610.59
2023-02-19T12:53:23.348Z,95612.75
2023-02-19T12:55:49.612Z,95602.81
2023-02-19T12:58:15.851Z,95599.28
2023-02-19T13:00:42.090Z,95590.19
2023-02-19T13:03:08.337Z,95584.97
2023-02-19T13:05:34.600Z,95591.97
2023-02-19T13:08:00.875Z,95588.13
2023-02-19T13:10:27.122Z,95585.06
2023-02-19T13:12:53.383Z,95596.00
2023-02-19T13:15:19.638Z,95591.09
2023-02-19T13:17:45.885Z,95587.69
2023-02-19T13:20:12.120Z,95596.41
2023-02-19T13:22:38.374Z,95583.13
2023-02-19T13:25:04.630Z,95586.41
2023-02-19T13:27:30.889Z,95582.84
2023-02-19T13:29:57.148Z,95586.06
2023-02-19T13:32:23.387Z,95576.81
2023-02-19T13:34:49.652Z,95586.41
2023-02-19T13:37:15.888Z,95591.25
2023-02-19T13:39:42.136Z,95586.59
2023-02-19T13:42:08.378Z,95593.28
2023-02-19T13:44:34.627Z,95589.63
2023-02-19T13:47:00.915Z,95588.75
2023-02-19T13:49:27.167Z,95584.97
2023-02-19T13:51:53.411Z,95582.31
2023-02-19T13:54:19.659Z,95586.66
2023-02-19T13:56:45.910Z,95579.47
2023-02-19T13:59:12.151Z,95581.06
2023-02-19T14:01:38.415Z,95580.28
2023-02-19T14:04:04.702Z,95578.34
2023-02-19T14:06:30.957Z,95573.13
2023-02-19T14:08:57.217Z,95576.81
2023-02-19T14:11:23.466Z,95566.69
2023-02-19T14:13:49.713Z,95564.97
2023-02-19T14:16:15.972Z,95569.63
2023-02-19T14:18:42.228Z,95558.63
2023-02-19T14:21:08.580Z,95553.94
2023-02-19T14:23:34.871Z,95563.16
2023-02-19T14:26:01.154Z,95573.34
2023-02-19T14:28:27.429Z,95564.13
2023-02-19T14:30:53.716Z,95551.28
2023-02-19T14:33:19.992Z,95541.88
2023-02-19T14:35:46.251Z,95528.34
2023-02-19T14:38:12.496Z,95536.69
2023-02-19T14:40:38.751Z,95553.91
2023-02-19T14:43:04.993Z,95568.38
2023-02-19T14:45:31.258Z,95570.91
2023-02-19T14:47:57.518Z,95574.59
2023-02-19T14:50:23.795Z,95596.09
2023-02-19T14:52:50.036Z,95587.06
2023-02-19T14:55:16.295Z,95580.56
2023-02-19T14:57:42.568Z,95576.81
2023-02-19T15:00:08.833Z,95585.00
2023-02-19T15:02:35.078Z,95577.53
2023-02-19T15:05:01.370Z,95586.41
2023-02-19T15:07:27.689Z,95591.41
2023-02-19T15:09:53.938Z,95590.38
2023-02-19T15:12:20.189Z,95601.34
2023-02-19T15:14:46.446Z,95589.75
2023-02-19T15:17:12.702Z,95594.41
2023-02-19T15:19:38.972Z,95589.31
2023-02-19T15:22:05.205Z,95590.41
2023-02-19T15:24:31.464Z,95590.22
2023-02-19T15:26:57.711Z,95598.91
2023-02-19T15:29:23.960Z,95592.31
2023-02-19T15:31:50.268Z,95584.38
2023-02-19T15:34:16.638Z,95574.06
2023-02-19T15:36:42.942Z,95582.47
2023-02-19T15:39:09.184Z,95582.47
2023-02-19T15:41:35.545Z,95583.94
2023-02-19T15:44:01.789Z,95592.91
2023-02-19T15:46:28.098Z,95592.78
2023-02-19T15:48:54.414Z,95592.41
2023-02-19T15:51:20.655Z,95610.59
2023-02-19T15:53:46.903Z,95615.34
2023-02-19T15:56:13.147Z,95613.91
2023-02-19T15:58:39.386Z,95618.81
2023-02-19T16:01:05.642Z,95607.31
2023-02-19T16:03:32.166Z,95622.19
2023-02-19T16:05:58.457Z,95619.38
2023-02-19T16:08:24.712Z,95618.53
2023-02-19T16:10:50.955Z,95617.22
2023-02-19T16:13:17.194Z,95623.28
2023-02-19T16:15:43.424Z,95622.47
2023-02-19T16:18:09.675Z,95622.78
2023-02-19T16:20:35.912Z,95631.69
2023-02-19T16:23:02.146Z,95633.38
2023-02-19T16:25:28.390Z,95640.50
2023-02-19T16:27:54.629Z,95642.47
2023-02-19T16:30:20.928Z,95646.66
2023-02-19T16:32:47.194Z,95655.72
2023-02-19T16:35:13.461Z,95658.50
2023-02-19T16:37:40.879Z,95659.84
2023-02-19T16:40:07.320Z,95659.91
2023-02-19T16:42:33.607Z,95662.72
2023-02-19T16:44:59.843Z,95663.78
2023-02-19T16:47:26.098Z,95662.78
2023-02-19T16:49:52.351Z,95673.00
2023-02-19T16:52:18.599Z,95687.41
2023-02-19T16:54:44.869Z,95688.59
2023-02-19T16:57:11.130Z,95685.09
2023-02-19T16:59:37.382Z,95692.34
2023-02-19T17:02:03.618Z,95685.41
2023-02-19T17:04:29.872Z,95687.91
2023-02-19T17:06:56.130Z,95691.03
2023-02-19T17:09:22.379Z,95694.66
2023-02-19T17:11:48.634Z,95699.94
2023-02-19T17:14:14.887Z,95702.72
2023-02-19T17:16:41.207Z,95707.19
2023-02-19T17:19:07.542Z,95710.66
2023-02-19T17:21:33.886Z,95712.44
2023-02-19T17:24:00.136Z,95721.69
2023-02-19T17:26:26.401Z,95720.19
2023-02-19T17:28:52.649Z,95720.28
2023-02-19T17:31:19.008Z,95730.03
2023-02-19T17:33:45.354Z,95737.72
2023-02-19T17:36:11.621Z,95736.56
2023-02-19T17:38:37.869Z,95738.53
2023-02-19T17:41:04.121Z,95743.88
2023-02-19T17:43:30.389Z,95750.28
2023-02-19T17:45:56.667Z,95757.25
2023-02-19T17:48:22.938Z,95747.88
2023-02-19T17:50:49.211Z,95759.03
2023-02-19T17:53:15.473Z,95754.97
2023-02-19T17:55:41.848Z,95760.19
2023-02-19T17:58:08.107Z,95764.78
2023-02-19T18:00:34.358Z,95769.06
2023-02-19T18:03:00.602Z,95765.13
2023-02-19T18:05:26.842Z,95753.75
2023-02-19T18:07:53.086Z,95760.63
2023-02-19T18:10:19.333Z,95765.75
2023-02-19T18:12:45.611Z,95781.84
2023-02-19T18:15:11.863Z,95776.81
2023-02-19T18:17:38.134Z,95779.13
2023-02-19T18:20:04.412Z,95777.41
2023-02-19T18:22:30.694Z,95781.59
2023-02-19T18:24:56.963Z,95775.53
2023-02-19T18:27:23.222Z,95782.00
2023-02-19T18:29:49.483Z,95778.38
2023-02-19T18:32:15.725Z,95785.63
2023-02-19T18:34:41.973Z,95778.03
2023-02-19T18:37:08.233Z,95776.16
2023-02-19T18:39:34.506Z,95774.47
2023-02-19T18:42:00.766Z,95769.25
2023-02-19T18:44:27.017Z,95763.91
2023-02-19T18:46:53.275Z,95767.00
2023-02-19T18:49:19.534Z,95772.69
2023-02-19T18:51:45.800Z,95773.13
2023-02-19T18:54:12.071Z,95770.75
2023-02-19T18:56:38.317Z,95774.06
2023-02-19T18:59:04.597Z,95775.16
2023-02-19T19:01:30.934Z,95765.88
2023-02-19T19:03:57.236Z,95761.00
2023-02-19T19:06:23.545Z,95764.75
2023-02-19T19:08:49.818Z,95766.13
2023-02-19T19:11:16.073Z,95763.50
2023-02-19T19:13:42.319Z,95760.88
2023-02-19T19:16:08.603Z,95769.94
2023-02-19T19:18:34.893Z,95777.16
2023-02-19T19:21:01.157Z,95771.38
2023-02-19T19:23:27.395Z,95772.22
2023-02-19T19:25:53.654Z,95768.50
2023-02-19T19:28:19.895Z,95767.00
2023-02-19T19:30:46.170Z,95764.78
2023-02-19T19:33:14.287Z,95762.16
2023-02-19T19:35:40.604Z,95762.47
2023-02-19T19:38:06.883Z,95763.44
2023-02-19T19:40:33.146Z,95757.47
2023-02-19T19:42:59.398Z,95759.38
2023-02-19T19:45:25.695Z,95754.03
2023-02-19T19:47:51.961Z,95746.97
2023-02-19T19:50:18.247Z,95739.91
2023-02-19T19:52:44.514Z,95739.94
2023-02-19T19:55:10.769Z,95743.66
2023-02-19T19:57:39.035Z,95744.63
2023-02-19T20:00:06.696Z,95755.22
2023-02-19T20:02:32.939Z,95751.31
2023-02-19T20:04:59.209Z,95757.13
2023-02-19T20:07:25.467Z,95769.72
2023-02-19T20:09:51.711Z,95769.28
2023-02-19T20:12:17.965Z,95771.91
2023-02-19T20:14:44.201Z,95768.22
2023-02-19T20:17:10.452Z,95767.09
2023-02-19T20:19:36.704Z,95764.47
2023-02-19T20:22:02.973Z,95760.78
2023-02-19T20:24:29.223Z,95764.94
2023-02-19T20:26:55.464Z,95769.75
2023-02-19T20:29:21.732Z,95779.00
2023-02-19T20:31:48.083Z,95793.09
2023-02-19T20:34:14.365Z,95802.19
2023-02-19T20:36:40.624Z,95802.91
2023-02-19T20:39:06.875Z,95807.31
2023-02-19T20:41:33.111Z,95809.94
2023-02-19T20:43:59.365Z,95809.94
2023-02-19T20:46:25.663Z,95823.56
2023-02-19T20:48:52.098Z,95827.41
2023-02-19T20:51:18.353Z,95825.31
2023-02-19T20:53:44.608Z,95821.88
2023-02-19T20:56:11.430Z,95817.06
2023-02-19T20:58:37.874Z,95800.88
2023-02-19T21:01:04.132Z,95806.88
2023-02-19T21:03:30.386Z,95799.81
2023-02-19T21:05:56.642Z,95783.41
2023-02-19T21:08:22.887Z,95797.22
2023-02-19T21:10:49.161Z,95809.44
2023-02-19T21:13:15.432Z,95806.69
2023-02-19T21:15:41.693Z,95811.81
2023-02-19T21:18:07.953Z,95817.34
2023-02-19T21:20:34.209Z,95818.00
2023-02-19T21:23:00.451Z,95820.78
2023-02-19T21:25:26.699Z,95820.34
2023-02-19T21:27:52.946Z,95827.63
2023-02-19T21:30:19.222Z,95828.03
2023-02-19T21:32:45.465Z,95830.56
2023-02-19T21:35:11.711Z,95838.41
2023-02-19T21:37:37.977Z,95839.34
2023-02-19T21:40:04.221Z,95839.94
2023-02-19T21:42:30.566Z,95841.31
2023-02-19T21:44:56.802Z,95843.25
2023-02-19T21:47:23.043Z,95843.50
2023-02-19T21:49:49.290Z,95849.56
2023-02-19T21:52:15.545Z,95853.72
2023-02-19T21:54:41.801Z,95855.38
2023-02-19T21:57:09.110Z,95851.78
2023-02-19T21:59:35.373Z,95856.06
2023-02-19T22:02:01.618Z,95845.84
2023-02-19T22:04:27.870Z,95849.78
2023-02-19T22:06:54.106Z,95856.63
2023-02-19T22:09:20.374Z,95858.25
2023-02-19T22:11:46.617Z,95852.69
2023-02-19T22:14:12.883Z,95857.31
2023-02-19T22:16:39.163Z,95855.19
2023-02-19T22:19:05.412Z,95852.56
2023-02-19T22:21:31.661Z,95849.63
2023-02-19T22:23:57.914Z,95855.38
2023-02-19T22:26:24.183Z,95849.91
2023-02-19T22:28:50.426Z,95849.56
2023-02-19T22:31:16.715Z,95851.75
2023-02-19T22:33:42.966Z,95848.84
2023-02-19T22:36:09.347Z,95847.34
2023-02-19T22:38:35.700Z,95844.59
2023-02-19T22:41:01.952Z,95848.50
2023-02-19T22:43:28.201Z,95849.00
2023-02-19T22:45:54.465Z,95848.28
2023-02-19T22:48:29.595Z,95849.81
2023-02-19T22:50:56.478Z,95840.78
2023-02-19T22:53:22.734Z,95836.66
2023-02-19T22:55:48.987Z,95831.19
2023-02-19T22:58:15.245Z,95836.41
2023-02-19T23:00:41.488Z,95829.25
2023-02-19T23:03:07.729Z,95826.38
2023-02-19T23:05:33.981Z,95821.03
2023-02-19T23:08:00.260Z,95826.13
2023-02-19T23:10:26.516Z,95833.72
2023-02-19T23:12:52.757Z,95827.50
2023-02-19T23:15:19.016Z,95832.97
2023-02-19T23:17:45.277Z,95828.06
2023-02-19T23:20:11.524Z,95838.06
2023-02-19T23:22:37.766Z,95836.00
2023-02-19T23:25:04.014Z,95838.38
2023-02-19T23:27:30.258Z,95837.97
2023-02-19T23:29:56.514Z,95840.88
2023-02-19T23:32:22.771Z,95840.19
2023-02-19T23:34:49.009Z,95836.00
2023-02-19T23:37:15.263Z,95837.94
2023-02-19T23:39:41.522Z,95839.44
2023-02-19T23:42:07.776Z,95833.00
2023-02-19T23:44:34.039Z,95841.56
2023-02-19T23:47:00.311Z,95837.97
2023-02-19T23:49:26.568Z,95842.97
2023-02-19T23:51:52.832Z,95844.78
2023-02-19T23:54:19.092Z,95848.09
2023-02-19T23:56:45.355Z,95840.91
2023-02-19T23:59:11.653Z,95837.78
